Time;durP1;ratioP1;P1;durP2;ratioP2;P2;SDS_P1;SDS_P2;PMS_P1;PMS_P2;Temp;Humidity;BMP_temperature;BMP_pressure;BME280_temperature;BME280_humidity;BME280_pressure;Samples;Min_cycle;Max_cycle;Signal;HPM_P1;HPM_P2
2023/09/11 00:01:17;;;;;;;0.00;0.00;;;21.70;81.50;;;;;;5008844;28;20038;-70
2023/09/11 00:03:43;;;;;;;0.00;0.00;;;21.70;81.60;;;;;;4975149;28;20125;-70
2023/09/11 00:06:08;;;;;;;0.00;0.00;;;21.60;81.50;;;;;;5009295;28;20129;-70
2023/09/11 00:08:34;;;;;;;0.00;0.00;;;21.60;81.50;;;;;;5008959;28;20487;-70
2023/09/11 00:11:00;;;;;;;1.08;0.65;;;21.60;81.70;;;;;;5009093;28;20538;-70
2023/09/11 00:13:26;;;;;;;0.00;0.00;;;21.60;81.90;;;;;;5008793;28;20034;-70
2023/09/11 00:15:52;;;;;;;0.00;0.00;;;21.60;82.00;;;;;;5007630;28;20042;-70
2023/09/11 00:18:17;;;;;;;0.00;0.00;;;21.60;82.00;;;;;;5009249;28;20430;-70
2023/09/11 00:20:43;;;;;;;0.00;0.00;;;21.60;82.00;;;;;;5008540;28;20038;-70
2023/09/11 00:23:09;;;;;;;0.00;0.00;;;21.60;81.90;;;;;;4989388;28;20046;-70
2023/09/11 00:25:35;;;;;;;0.00;0.00;;;21.60;81.90;;;;;;4996491;28;20498;-70
2023/09/11 00:28:00;;;;;;;0.00;0.00;;;21.60;81.90;;;;;;4998640;28;20118;-70
2023/09/11 00:30:26;;;;;;;0.00;0.00;;;21.60;81.80;;;;;;5007299;28;20125;-70
2023/09/11 00:32:52;;;;;;;0.00;0.00;;;21.60;82.00;;;;;;5008065;28;20045;-70
2023/09/11 00:35:17;;;;;;;0.00;0.00;;;21.50;82.00;;;;;;4989462;28;20463;-70
2023/09/11 00:37:43;;;;;;;0.00;0.00;;;21.60;82.10;;;;;;4989411;28;20533;-70
2023/09/11 00:40:09;;;;;;;0.13;0.13;;;21.50;82.20;;;;;;5006761;28;20105;-70
2023/09/11 00:42:35;;;;;;;0.00;0.00;;;21.50;82.10;;;;;;5011335;28;20060;-70
2023/09/11 00:45:00;;;;;;;0.00;0.00;;;21.50;82.00;;;;;;5009017;28;20042;-70
2023/09/11 00:47:27;;;;;;;0.00;0.00;;;21.50;82.20;;;;;;4991173;28;20495;-70
2023/09/11 00:49:55;;;;;;;0.10;0.10;;;21.50;82.20;;;;;;5005984;28;20042;-70
2023/09/11 00:52:21;;;;;;;0.00;0.00;;;21.50;82.10;;;;;;5007346;28;20050;-70
2023/09/11 00:54:47;;;;;;;0.00;0.00;;;21.50;82.00;;;;;;5011158;28;20030;-70
2023/09/11 00:57:17;;;;;;;0.00;0.00;;;21.50;82.00;;;;;;5012561;28;20383;-70
2023/09/11 00:59:44;;;;;;;0.00;0.00;;;21.40;82.10;;;;;;5011452;28;20557;-70
2023/09/11 01:02:12;;;;;;;0.00;0.00;;;21.40;82.00;;;;;;4998162;28;20054;-70
2023/09/11 01:04:38;;;;;;;0.00;0.00;;;21.40;82.00;;;;;;4995548;28;20053;-70
2023/09/11 01:07:04;;;;;;;0.00;0.00;;;21.30;82.20;;;;;;5012361;28;20045;-70
2023/09/11 01:09:29;;;;;;;0.00;0.00;;;21.30;82.20;;;;;;5011955;28;20050;-70
2023/09/11 01:11:55;;;;;;;0.00;0.00;;;21.30;82.30;;;;;;5005099;28;20080;-70
2023/09/11 01:14:21;;;;;;;0.00;0.00;;;21.30;82.40;;;;;;4994294;28;20498;-70
2023/09/11 01:17:24;;;;;;;0.00;0.00;;;21.30;82.40;;;;;;5010939;28;20121;-70
2023/09/11 01:20:19;;;;;;;0.00;0.00;;;21.30;82.40;;;;;;4995995;28;20085;-70
2023/09/11 01:23:10;;;;;;;0.00;0.00;;;21.30;82.50;;;;;;5011161;28;20392;-69
2023/09/11 01:25:54;;;;;;;0.00;0.00;;;21.30;82.40;;;;;;5010965;28;20045;-70
2023/09/11 01:29:02;;;;;;;0.00;0.00;;;21.30;82.40;;;;;;4992105;28;20107;-70
2023/09/11 01:31:31;;;;;;;0.00;0.00;;;21.30;82.50;;;;;;4988367;28;20124;-70
2023/09/11 01:34:00;;;;;;;0.00;0.00;;;21.20;82.60;;;;;;5011384;28;20844;-70
2023/09/11 01:36:26;;;;;;;0.00;0.00;;;21.20;82.80;;;;;;5011668;28;20144;-69
2023/09/11 01:38:52;;;;;;;0.00;0.00;;;21.20;82.70;;;;;;5011395;28;20133;-70
2023/09/11 01:41:20;;;;;;;0.00;0.00;;;21.20;82.70;;;;;;5011404;28;20042;-70
2023/09/11 01:43:48;;;;;;;0.00;0.00;;;21.20;82.80;;;;;;5011268;28;20066;-70
2023/09/11 01:46:17;;;;;;;0.00;0.00;;;21.20;82.80;;;;;;5007768;28;20531;-70
2023/09/11 01:48:45;;;;;;;0.00;0.00;;;21.20;82.80;;;;;;5011026;28;20084;-70
2023/09/11 01:51:12;;;;;;;0.00;0.00;;;21.20;82.80;;;;;;5010798;28;20096;-70
2023/09/11 01:53:40;;;;;;;0.00;0.00;;;21.10;82.80;;;;;;4997512;28;20045;-70
2023/09/11 01:56:06;;;;;;;0.00;0.00;;;21.10;82.90;;;;;;5005051;28;20103;-70
2023/09/11 01:58:32;;;;;;;0.00;0.00;;;21.10;82.90;;;;;;4993848;28;20030;-70
2023/09/11 02:00:57;;;;;;;0.00;0.00;;;21.10;82.90;;;;;;5010633;28;20450;-70
2023/09/11 02:03:23;;;;;;;0.00;0.00;;;21.10;82.90;;;;;;5001706;28;20100;-70
2023/09/11 02:05:49;;;;;;;0.00;0.00;;;21.10;82.90;;;;;;5004284;28;20042;-70
2023/09/11 02:08:14;;;;;;;0.00;0.00;;;21.10;83.00;;;;;;5009955;28;20041;-70
2023/09/11 02:10:40;;;;;;;0.00;0.00;;;21.10;82.90;;;;;;5010450;28;20048;-70
2023/09/11 02:13:05;;;;;;;0.00;0.00;;;21.10;83.00;;;;;;5003722;28;20725;-70
2023/09/11 02:15:31;;;;;;;0.00;0.00;;;21.10;83.00;;;;;;5010236;28;20077;-70
2023/09/11 02:17:56;;;;;;;0.00;0.00;;;21.00;83.00;;;;;;5010368;28;20045;-70
2023/09/11 02:20:22;;;;;;;0.00;0.00;;;21.00;83.20;;;;;;5010593;28;20042;-70
2023/09/11 02:22:47;;;;;;;0.00;0.00;;;21.00;83.20;;;;;;5010853;28;20709;-70
2023/09/11 02:25:13;;;;;;;0.00;0.00;;;21.00;83.30;;;;;;4995456;28;20038;-70
2023/09/11 02:27:39;;;;;;;0.00;0.00;;;21.00;83.50;;;;;;5007548;28;20045;-70
2023/09/11 02:30:06;;;;;;;0.10;0.10;;;21.00;83.40;;;;;;4993012;28;20058;-70
2023/09/11 02:32:31;;;;;;;0.00;0.00;;;21.00;83.60;;;;;;5010515;28;20167;-70
2023/09/11 02:34:57;;;;;;;0.05;0.05;;;21.10;83.80;;;;;;4993017;28;20096;-70
2023/09/11 02:37:22;;;;;;;0.00;0.00;;;21.10;83.90;;;;;;5010634;28;20391;-70
2023/09/11 02:39:48;;;;;;;0.00;0.00;;;21.10;83.80;;;;;;5010731;28;20046;-70
2023/09/11 02:42:13;;;;;;;0.00;0.00;;;21.10;83.80;;;;;;5010143;28;20469;-70
2023/09/11 02:44:39;;;;;;;0.20;0.20;;;21.10;83.80;;;;;;5010418;28;20121;-70
2023/09/11 02:47:05;;;;;;;0.00;0.00;;;21.10;84.20;;;;;;5010274;28;20060;-70
2023/09/11 02:49:31;;;;;;;0.10;0.10;;;21.10;84.40;;;;;;5009826;28;20050;-70
2023/09/11 02:51:56;;;;;;;0.00;0.00;;;21.10;84.40;;;;;;5009559;28;20597;-70
2023/09/11 02:54:22;;;;;;;0.03;0.03;;;21.10;84.20;;;;;;5002373;28;20117;-70
2023/09/11 02:56:47;;;;;;;0.00;0.00;;;21.10;84.30;;;;;;5001472;28;20050;-70
2023/09/11 02:59:13;;;;;;;0.00;0.00;;;21.10;84.30;;;;;;5003587;28;20053;-70
2023/09/11 03:01:38;;;;;;;0.15;0.15;;;21.10;84.30;;;;;;5000724;28;20034;-70
2023/09/11 03:04:04;;;;;;;0.00;0.00;;;21.10;84.30;;;;;;4998686;28;20618;-70
2023/09/11 03:06:30;;;;;;;0.00;0.00;;;21.10;84.30;;;;;;4997722;28;20041;-70
2023/09/11 03:08:56;;;;;;;0.00;0.00;;;21.10;84.00;;;;;;5009504;28;20054;-70
2023/09/11 03:11:22;;;;;;;0.00;0.00;;;21.10;84.00;;;;;;5004996;28;20049;-70
2023/09/11 03:13:49;;;;;;;0.00;0.00;;;21.10;84.10;;;;;;5010003;28;20049;-70
2023/09/11 03:16:15;;;;;;;0.00;0.00;;;21.00;84.10;;;;;;5007732;28;20125;-70
2023/09/11 03:18:41;;;;;;;0.00;0.00;;;21.10;84.20;;;;;;4998788;28;20156;-70
2023/09/11 03:21:08;;;;;;;0.00;0.00;;;21.10;84.30;;;;;;5006743;28;20542;-71
2023/09/11 03:23:34;;;;;;;0.00;0.00;;;21.10;84.10;;;;;;5009061;28;20189;-70
2023/09/11 03:26:00;;;;;;;0.00;0.00;;;21.10;84.00;;;;;;5009067;28;20479;-70
2023/09/11 03:28:30;;;;;;;0.00;0.00;;;21.00;84.20;;;;;;5008806;28;20053;-70
2023/09/11 03:30:56;;;;;;;0.00;0.00;;;21.10;84.20;;;;;;5009476;28;20514;-70
2023/09/11 03:33:22;;;;;;;0.00;0.00;;;21.00;84.10;;;;;;4995371;28;20140;-70
2023/09/11 03:35:48;;;;;;;0.00;0.00;;;21.00;84.00;;;;;;4990136;28;20043;-70
2023/09/11 03:38:14;;;;;;;0.00;0.00;;;21.00;84.20;;;;;;5002898;28;20061;-70
2023/09/11 03:40:41;;;;;;;0.00;0.00;;;21.10;84.10;;;;;;5009019;28;20050;-70
2023/09/11 03:43:07;;;;;;;0.00;0.00;;;21.10;84.10;;;;;;5005814;28;20045;-70
2023/09/11 03:45:32;;;;;;;0.00;0.00;;;21.10;84.10;;;;;;5003926;28;20037;-70
2023/09/11 03:47:58;;;;;;;0.00;0.00;;;21.10;84.20;;;;;;5005788;28;20469;-70
2023/09/11 03:50:23;;;;;;;0.00;0.00;;;21.10;84.10;;;;;;4994501;28;20043;-70
2023/09/11 03:52:50;;;;;;;0.00;0.00;;;21.10;84.00;;;;;;5000706;28;20550;-70
2023/09/11 03:55:17;;;;;;;0.00;0.00;;;21.10;84.10;;;;;;5007512;28;20124;-70
2023/09/11 03:57:43;;;;;;;0.00;0.00;;;21.10;84.20;;;;;;5008137;28;20068;-70
2023/09/11 04:00:09;;;;;;;0.00;0.00;;;21.10;84.20;;;;;;5009194;28;20041;-70
2023/09/11 04:02:34;;;;;;;0.00;0.00;;;21.10;84.20;;;;;;5008711;28;20076;-70
2023/09/11 04:05:00;;;;;;;0.00;0.00;;;21.10;84.40;;;;;;5002304;28;20038;-70
2023/09/11 04:07:26;;;;;;;0.00;0.00;;;21.20;84.30;;;;;;5002507;28;20034;-70
2023/09/11 04:09:51;;;;;;;0.00;0.00;;;21.20;84.30;;;;;;5009162;28;20042;-70
2023/09/11 04:12:17;;;;;;;0.00;0.00;;;21.20;84.20;;;;;;4999315;28;20051;-70
2023/09/11 04:14:45;;;;;;;0.00;0.00;;;21.20;84.20;;;;;;4989784;28;20047;-70
2023/09/11 04:17:11;;;;;;;0.00;0.00;;;21.20;84.20;;;;;;4995948;28;20582;-70
2023/09/11 04:19:40;;;;;;;0.00;0.00;;;21.20;84.20;;;;;;5012701;28;20049;-70
2023/09/11 04:22:06;;;;;;;0.00;0.00;;;21.20;84.20;;;;;;4999719;28;20045;-70
2023/09/11 04:24:32;;;;;;;0.00;0.00;;;21.20;84.20;;;;;;4994948;28;20085;-70
2023/09/11 04:26:58;;;;;;;0.00;0.00;;;21.20;84.10;;;;;;4993684;28;20086;-70
2023/09/11 04:29:24;;;;;;;0.00;0.00;;;21.20;84.20;;;;;;4998974;28;20045;-70
2023/09/11 04:31:50;;;;;;;0.00;0.00;;;21.20;84.10;;;;;;5013080;28;20041;-70
2023/09/11 04:34:19;;;;;;;0.00;0.00;;;21.20;84.10;;;;;;5012839;28;20045;-70
2023/09/11 04:36:44;;;;;;;0.00;0.00;;;21.20;84.00;;;;;;4993435;28;20077;-70
2023/09/11 04:39:12;;;;;;;0.10;0.10;;;21.20;84.00;;;;;;4993140;28;20105;-70
2023/09/11 04:41:37;;;;;;;0.00;0.00;;;21.20;84.00;;;;;;5005113;28;20038;-70
2023/09/11 04:44:03;;;;;;;0.00;0.00;;;21.20;84.00;;;;;;5002157;28;20057;-70
2023/09/11 04:46:29;;;;;;;0.00;0.00;;;21.20;84.00;;;;;;4992671;28;20458;-70
2023/09/11 04:48:55;;;;;;;0.00;0.00;;;21.20;84.00;;;;;;5003057;28;20061;-70
2023/09/11 04:51:21;;;;;;;0.00;0.00;;;21.20;84.10;;;;;;5012282;28;20599;-70
2023/09/11 04:53:46;;;;;;;0.00;0.00;;;21.10;84.30;;;;;;5000124;28;20042;-70
2023/09/11 04:56:12;;;;;;;0.10;0.10;;;21.10;84.30;;;;;;5010093;28;20125;-70
2023/09/11 04:58:38;;;;;;;0.00;0.00;;;21.10;84.20;;;;;;5010145;28;20441;-70
2023/09/11 05:01:03;;;;;;;0.00;0.00;;;21.10;84.30;;;;;;5011968;28;20038;-70
2023/09/11 05:03:29;;;;;;;0.00;0.00;;;21.00;84.20;;;;;;4998782;28;20133;-70
2023/09/11 05:05:54;;;;;;;0.00;0.00;;;21.00;84.20;;;;;;4998065;28;20419;-70
2023/09/11 05:08:20;;;;;;;0.00;0.00;;;21.00;84.20;;;;;;4987562;28;20045;-70
2023/09/11 05:10:45;;;;;;;0.00;0.00;;;21.00;84.10;;;;;;5011168;28;20045;-70
2023/09/11 05:13:11;;;;;;;0.00;0.00;;;21.00;84.20;;;;;;4997620;28;20055;-70
2023/09/11 05:15:37;;;;;;;0.00;0.00;;;21.00;84.20;;;;;;4996667;28;20096;-70
2023/09/11 05:18:03;;;;;;;0.00;0.00;;;20.90;84.10;;;;;;5011292;28;20042;-70
2023/09/11 05:20:30;;;;;;;0.00;0.00;;;21.00;84.30;;;;;;5010759;28;20042;-70
2023/09/11 05:22:56;;;;;;;0.00;0.00;;;21.00;84.30;;;;;;4974927;28;20480;-70
2023/09/11 05:25:23;;;;;;;0.00;0.00;;;21.00;84.30;;;;;;4994276;28;20530;-70
2023/09/11 05:27:48;;;;;;;0.00;0.00;;;21.00;84.30;;;;;;5009400;28;20422;-70
2023/09/11 05:30:14;;;;;;;0.00;0.00;;;21.00;84.30;;;;;;5003792;28;20047;-70
2023/09/11 05:32:40;;;;;;;0.00;0.00;;;20.90;84.30;;;;;;4991141;28;20070;-70
2023/09/11 05:35:07;;;;;;;0.00;0.00;;;20.90;84.20;;;;;;4992628;28;20050;-70
2023/09/11 05:37:33;;;;;;;0.00;0.00;;;21.00;84.20;;;;;;5011207;28;20435;-70
2023/09/11 05:40:00;;;;;;;0.10;0.10;;;20.90;84.20;;;;;;4991265;28;20069;-70
2023/09/11 05:42:26;;;;;;;0.00;0.00;;;21.00;84.10;;;;;;5001342;28;20438;-70
2023/09/11 05:44:52;;;;;;;0.10;0.10;;;21.00;84.20;;;;;;5007083;28;20049;-70
2023/09/11 05:47:17;;;;;;;0.00;0.00;;;21.00;84.00;;;;;;5001596;28;20463;-70
2023/09/11 05:49:43;;;;;;;0.10;0.10;;;21.10;84.20;;;;;;5007507;28;20125;-71
2023/09/11 05:52:08;;;;;;;0.65;0.35;;;21.10;84.10;;;;;;4998208;28;20104;-70
2023/09/11 05:54:34;;;;;;;0.00;0.00;;;21.10;84.00;;;;;;5008493;28;20042;-70
2023/09/11 05:57:02;;;;;;;0.00;0.00;;;21.10;84.00;;;;;;5010416;28;20042;-69
2023/09/11 05:59:27;;;;;;;8.77;0.80;;;21.20;84.10;;;;;;5009891;28;20074;-69
2023/09/11 06:01:53;;;;;;;0.30;0.28;;;21.20;84.40;;;;;;4990679;28;20088;-69
2023/09/11 06:04:18;;;;;;;0.00;0.00;;;21.30;84.30;;;;;;5010481;28;20034;-69
2023/09/11 06:06:44;;;;;;;0.00;0.00;;;21.30;84.20;;;;;;5009635;28;20510;-69
2023/09/11 06:09:10;;;;;;;0.00;0.00;;;21.30;84.40;;;;;;5001113;28;20088;-70
2023/09/11 06:11:36;;;;;;;0.00;0.00;;;21.30;84.20;;;;;;4999352;28;20457;-69
2023/09/11 06:14:04;;;;;;;0.00;0.00;;;21.40;84.50;;;;;;4997106;28;20471;-69
2023/09/11 06:16:29;;;;;;;0.00;0.00;;;21.40;84.40;;;;;;5009855;28;20057;-68
2023/09/11 06:18:57;;;;;;;0.68;0.47;;;21.40;84.40;;;;;;5003571;28;20053;-69
2023/09/11 06:21:22;;;;;;;0.00;0.00;;;21.50;84.50;;;;;;5009367;28;20509;-70
2023/09/11 06:23:48;;;;;;;0.00;0.00;;;21.60;84.90;;;;;;5008754;28;20046;-70
2023/09/11 06:26:13;;;;;;;0.03;0.03;;;21.60;84.60;;;;;;5009317;28;20049;-70
2023/09/11 06:28:39;;;;;;;0.00;0.00;;;21.70;84.60;;;;;;5010341;28;20054;-70
2023/09/11 06:31:05;;;;;;;0.03;0.03;;;21.70;84.30;;;;;;5010868;28;20046;-70
2023/09/11 06:33:30;;;;;;;0.00;0.00;;;21.70;84.20;;;;;;4984608;28;20050;-71
2023/09/11 06:35:56;;;;;;;0.40;0.40;;;21.80;84.00;;;;;;5006815;28;20050;-71
2023/09/11 06:38:21;;;;;;;0.00;0.00;;;21.80;84.00;;;;;;5003966;28;20070;-70
2023/09/11 06:40:47;;;;;;;0.00;0.00;;;21.90;84.30;;;;;;4992403;28;20045;-70
2023/09/11 06:43:14;;;;;;;2.03;0.88;;;21.90;84.30;;;;;;4996085;28;20365;-71
2023/09/11 06:45:41;;;;;;;0.00;0.00;;;22.00;84.50;;;;;;4997132;28;20069;-69
2023/09/11 06:48:09;;;;;;;0.00;0.00;;;22.00;84.70;;;;;;4996388;28;20131;-68
2023/09/11 06:50:35;;;;;;;0.00;0.00;;;22.10;84.80;;;;;;4997192;28;20041;-68
2023/09/11 06:53:01;;;;;;;0.22;0.22;;;22.10;84.80;;;;;;4998712;28;20049;-68
2023/09/11 06:55:26;;;;;;;0.00;0.00;;;22.10;84.70;;;;;;4997027;28;20038;-68
2023/09/11 06:57:57;;;;;;;0.10;0.10;;;22.20;84.50;;;;;;4997313;28;20041;-68
2023/09/11 07:00:23;;;;;;;0.00;0.00;;;22.20;84.40;;;;;;4996823;28;20049;-68
2023/09/11 07:02:49;;;;;;;0.00;0.00;;;22.20;84.40;;;;;;4997102;28;20037;-68
2023/09/11 07:05:20;;;;;;;0.03;0.03;;;22.20;84.30;;;;;;4997716;28;20046;-68
2023/09/11 07:07:46;;;;;;;0.00;0.00;;;22.20;84.50;;;;;;4998631;28;20050;-68
2023/09/11 07:10:14;;;;;;;0.00;0.00;;;22.20;84.30;;;;;;4998540;28;20068;-68
2023/09/11 07:12:43;;;;;;;0.00;0.00;;;22.30;84.20;;;;;;4998470;28;20041;-67
2023/09/11 07:15:09;;;;;;;0.00;0.00;;;22.30;84.00;;;;;;4997378;28;20664;-68
2023/09/11 07:17:35;;;;;;;0.00;0.00;;;22.30;83.80;;;;;;4997756;28;20052;-67
2023/09/11 07:20:04;;;;;;;0.00;0.00;;;22.30;83.80;;;;;;4999356;28;20395;-68
2023/09/11 07:22:30;;;;;;;0.00;0.00;;;22.40;83.80;;;;;;4996506;28;20545;-68
2023/09/11 07:24:55;;;;;;;0.00;0.00;;;22.40;83.70;;;;;;4997523;28;20073;-67
2023/09/11 07:27:21;;;;;;;2.28;1.10;;;22.40;83.60;;;;;;4997772;28;20050;-68
2023/09/11 07:29:47;;;;;;;0.00;0.00;;;22.50;83.60;;;;;;4997410;28;20045;-67
2023/09/11 07:32:12;;;;;;;0.00;0.00;;;22.50;83.50;;;;;;4998050;28;20064;-67
2023/09/11 07:34:38;;;;;;;0.80;0.80;;;22.50;83.50;;;;;;4980583;28;20096;-67
2023/09/11 07:37:03;;;;;;;0.00;0.00;;;22.50;83.60;;;;;;4979674;28;20585;-67
2023/09/11 07:39:29;;;;;;;0.15;0.15;;;22.60;83.50;;;;;;4998092;28;20089;-68
2023/09/11 07:41:55;;;;;;;0.00;0.00;;;22.60;83.60;;;;;;4997403;28;20046;-68
2023/09/11 07:44:20;;;;;;;0.15;0.15;;;22.70;83.60;;;;;;4997472;28;20045;-68
2023/09/11 07:46:46;;;;;;;0.00;0.00;;;22.70;83.60;;;;;;4996882;28;20594;-67
2023/09/11 07:49:11;;;;;;;0.10;0.10;;;22.80;83.60;;;;;;4997318;28;20096;-68
2023/09/11 07:51:37;;;;;;;0.10;0.10;;;22.90;83.40;;;;;;4997834;28;20044;-67
2023/09/11 07:54:03;;;;;;;0.00;0.00;;;22.90;83.20;;;;;;4995931;28;20047;-68
2023/09/11 07:56:29;;;;;;;25.13;2.80;;;23.00;83.10;;;;;;4996340;28;20077;-68
2023/09/11 07:58:55;;;;;;;1.00;0.90;;;23.10;82.80;;;;;;4995053;28;20118;-68
2023/09/11 08:01:25;;;;;;;1.27;0.85;;;23.10;82.00;;;;;;4997552;28;20049;-68
2023/09/11 08:03:51;;;;;;;1.65;0.50;;;23.20;81.60;;;;;;4997787;28;20050;-67
2023/09/11 08:06:17;;;;;;;1.17;0.82;;;23.30;81.50;;;;;;4996340;28;20088;-67
2023/09/11 08:08:42;;;;;;;12.30;2.17;;;23.30;81.50;;;;;;4996213;28;20037;-67
2023/09/11 08:11:16;;;;;;;1.95;0.65;;;23.40;81.00;;;;;;4997615;28;20465;-66
2023/09/11 08:13:46;;;;;;;0.25;0.25;;;23.50;81.10;;;;;;4996172;28;20503;-66
2023/09/11 08:16:16;;;;;;;0.10;0.10;;;23.50;80.90;;;;;;4997577;28;20072;-66
2023/09/11 08:18:42;;;;;;;0.00;0.00;;;23.60;80.40;;;;;;4996122;28;20100;-66
2023/09/11 08:21:08;;;;;;;0.30;0.28;;;23.60;80.30;;;;;;4997977;28;20077;-66
2023/09/11 08:23:33;;;;;;;0.30;0.30;;;23.60;80.20;;;;;;4995694;28;20558;-67
2023/09/11 08:26:01;;;;;;;0.00;0.00;;;23.70;80.30;;;;;;4996378;28;20121;-66
2023/09/11 08:28:28;;;;;;;0.28;0.28;;;23.70;80.20;;;;;;4996395;28;20129;-66
2023/09/11 08:30:53;;;;;;;0.90;0.60;;;23.70;80.10;;;;;;4997762;28;20049;-66
2023/09/11 08:33:21;;;;;;;0.10;0.10;;;23.80;80.10;;;;;;4996908;28;20034;-67
2023/09/11 08:35:48;;;;;;;0.08;0.08;;;23.80;79.90;;;;;;4996737;28;20507;-67
2023/09/11 08:38:15;;;;;;;0.45;0.45;;;23.90;79.70;;;;;;4995097;28;20065;-68
2023/09/11 08:40:42;;;;;;;0.00;0.00;;;23.90;79.70;;;;;;4994757;28;20049;-68
2023/09/11 08:43:08;;;;;;;0.57;0.57;;;24.00;79.50;;;;;;4994549;28;20048;-68
2023/09/11 08:45:34;;;;;;;0.95;0.22;;;23.90;79.50;;;;;;4996725;28;20438;-68
2023/09/11 08:48:04;;;;;;;0.28;0.28;;;24.00;79.70;;;;;;4995545;28;20054;-67
2023/09/11 08:50:34;;;;;;;0.30;0.25;;;24.00;79.60;;;;;;4996490;28;20474;-68
2023/09/11 08:53:01;;;;;;;0.28;0.15;;;24.00;79.60;;;;;;4995489;28;20038;-67
2023/09/11 08:55:28;;;;;;;4.75;2.38;;;24.10;79.70;;;;;;4996002;28;20045;-67
2023/09/11 08:57:55;;;;;;;1.17;1.13;;;24.20;79.90;;;;;;4994932;28;20103;-67
2023/09/11 09:00:21;;;;;;;0.05;0.05;;;24.10;79.90;;;;;;4995823;28;20046;-67
2023/09/11 09:02:47;;;;;;;1.65;0.80;;;24.20;79.80;;;;;;4997895;28;20848;-67
2023/09/11 09:05:15;;;;;;;0.05;0.05;;;24.30;79.50;;;;;;4999916;28;20553;-67
2023/09/11 09:07:43;;;;;;;0.75;0.75;;;24.30;79.30;;;;;;4999349;28;20118;-67
2023/09/11 09:10:09;;;;;;;0.40;0.40;;;24.30;79.20;;;;;;5000507;28;20045;-67
2023/09/11 09:12:35;;;;;;;0.10;0.10;;;24.40;79.30;;;;;;5000962;28;20037;-67
2023/09/11 09:15:03;;;;;;;0.52;0.52;;;24.40;79.40;;;;;;5000157;28;20636;-67
2023/09/11 09:17:29;;;;;;;0.10;0.10;;;24.50;79.40;;;;;;5000240;28;20037;-67
2023/09/11 09:19:54;;;;;;;0.47;0.25;;;24.50;79.50;;;;;;4999358;28;20540;-68
2023/09/11 09:22:20;;;;;;;0.08;0.08;;;24.50;79.40;;;;;;4980736;28;20049;-67
2023/09/11 09:24:54;;;;;;;0.08;0.05;;;24.50;79.30;;;;;;4998178;28;20494;-67
2023/09/11 09:27:21;;;;;;;0.00;0.00;;;24.60;79.60;;;;;;4982744;28;20043;-67
2023/09/11 09:29:48;;;;;;;0.60;0.30;;;24.70;78.50;;;;;;4999429;28;20042;-67
2023/09/11 09:32:14;;;;;;;0.20;0.20;;;24.70;78.00;;;;;;4999356;28;20133;-67
2023/09/11 09:34:50;;;;;;;0.00;0.00;;;24.80;76.20;;;;;;5000874;28;20722;-67
2023/09/11 09:37:18;;;;;;;0.77;0.52;;;24.80;76.40;;;;;;4999409;28;20057;-67
2023/09/11 09:39:45;;;;;;;0.00;0.00;;;24.80;76.40;;;;;;4980778;28;20392;-68
2023/09/11 09:42:12;;;;;;;1.65;0.32;;;24.90;75.40;;;;;;4999704;28;20132;-67
2023/09/11 09:44:40;;;;;;;0.05;0.05;;;24.90;75.90;;;;;;4999143;28;20440;-67
2023/09/11 09:47:10;;;;;;;0.10;0.10;;;25.00;76.00;;;;;;4998590;28;20430;-67
2023/09/11 09:49:42;;;;;;;0.10;0.10;;;25.00;76.10;;;;;;4980540;28;20123;-66
2023/09/11 09:52:08;;;;;;;0.40;0.40;;;25.00;76.00;;;;;;5001166;28;20045;-66
2023/09/11 09:54:47;;;;;;;0.00;0.00;;;25.00;75.80;;;;;;4999386;28;20042;-66
2023/09/11 09:57:14;;;;;;;0.63;0.63;;;25.10;75.90;;;;;;4998586;28;20773;-67
2023/09/11 09:59:50;;;;;;;0.00;0.00;;;25.10;76.20;;;;;;4999333;28;20046;-67
2023/09/11 10:02:24;;;;;;;0.10;0.10;;;25.20;76.50;;;;;;4997597;28;20050;-68
2023/09/11 10:04:54;;;;;;;0.70;0.17;;;25.30;75.70;;;;;;4999202;28;20041;-67
2023/09/11 10:07:41;;;;;;;0.60;0.60;;;25.20;74.10;;;;;;4998683;28;20034;-67
2023/09/11 10:10:39;;;;;;;0.00;0.00;;;25.30;74.30;;;;;;4998244;28;20034;-68
2023/09/11 10:13:08;;;;;;;0.17;0.17;;;25.30;74.60;;;;;;4956548;28;20050;-68
2023/09/11 10:15:36;;;;;;;0.00;0.00;;;25.40;74.70;;;;;;4980284;28;20049;-68
2023/09/11 10:18:03;;;;;;;1.95;0.25;;;25.50;74.50;;;;;;4981586;28;20050;-69
2023/09/11 10:20:29;;;;;;;0.00;0.00;;;25.50;73.80;;;;;;4999091;28;20056;-68
2023/09/11 10:22:56;;;;;;;3.60;2.05;;;25.50;73.60;;;;;;4998448;28;20034;-68
2023/09/11 10:25:23;;;;;;;0.32;0.32;;;25.50;73.30;;;;;;4999137;28;20846;-68
2023/09/11 10:27:53;;;;;;;0.10;0.10;;;25.50;73.10;;;;;;4998222;28;20096;-68
2023/09/11 10:30:23;;;;;;;0.10;0.10;;;25.60;73.00;;;;;;4999028;28;20033;-68
2023/09/11 10:32:57;;;;;;;3.10;1.38;;;25.60;73.50;;;;;;4998125;28;20050;-68
2023/09/11 10:35:24;;;;;;;1.10;0.82;;;25.80;73.60;;;;;;4997183;28;20558;-68
2023/09/11 10:37:56;;;;;;;0.13;0.13;;;25.70;72.70;;;;;;4998929;28;20130;-67
2023/09/11 10:40:23;;;;;;;1.98;1.17;;;25.80;71.80;;;;;;4998186;28;20882;-67
2023/09/11 10:42:49;;;;;;;0.00;0.00;;;25.80;70.70;;;;;;4980936;28;20485;-68
2023/09/11 10:45:29;;;;;;;0.25;0.25;;;25.90;70.90;;;;;;4979873;28;20054;-69
2023/09/11 10:47:54;;;;;;;0.15;0.15;;;25.90;69.60;;;;;;4998394;28;20657;-68
2023/09/11 10:50:30;;;;;;;0.28;0.28;;;26.00;70.30;;;;;;4998520;28;20133;-69
2023/09/11 10:52:56;;;;;;;0.25;0.25;;;26.00;70.20;;;;;;4996060;28;20125;-68
2023/09/11 10:55:25;;;;;;;1.90;1.23;;;26.00;69.50;;;;;;4995692;28;20103;-68
2023/09/11 10:57:52;;;;;;;0.00;0.00;;;26.00;68.80;;;;;;4996610;28;20057;-68
2023/09/11 11:00:20;;;;;;;0.00;0.00;;;26.00;69.50;;;;;;4996563;28;20046;-67
2023/09/11 11:02:45;;;;;;;0.20;0.20;;;26.00;67.30;;;;;;4996265;28;20045;-67
2023/09/11 11:05:15;;;;;;;0.00;0.00;;;26.10;68.00;;;;;;4998601;28;20030;-67
2023/09/11 11:07:41;;;;;;;0.05;0.05;;;26.00;65.90;;;;;;4997885;28;20061;-68
2023/09/11 11:10:12;;;;;;;0.10;0.10;;;26.00;67.60;;;;;;4998213;28;20081;-68
2023/09/11 11:12:40;;;;;;;0.03;0.03;;;26.10;67.90;;;;;;4998372;28;20854;-68
2023/09/11 11:15:22;;;;;;;0.00;0.00;;;26.10;68.40;;;;;;4998122;28;20137;-68
2023/09/11 11:18:34;;;;;;;0.20;0.17;;;26.10;65.90;;;;;;4996164;28;20054;-69
2023/09/11 11:20:59;;;;;;;0.00;0.00;;;26.20;67.70;;;;;;4980356;28;20149;-67
2023/09/11 11:23:28;;;;;;;0.20;0.20;;;26.20;66.40;;;;;;4964171;28;20145;-68
2023/09/11 11:25:54;;;;;;;13.30;1.55;;;26.20;66.60;;;;;;4997801;28;20080;-68
2023/09/11 11:28:22;;;;;;;0.63;0.35;;;26.20;64.40;;;;;;4997485;28;20610;-68
2023/09/11 11:30:52;;;;;;;0.00;0.00;;;26.20;65.20;;;;;;4996452;28;20492;-68
2023/09/11 11:33:22;;;;;;;0.00;0.00;;;26.20;65.10;;;;;;4997534;28;20042;-68
2023/09/11 11:35:48;;;;;;;0.43;0.43;;;26.30;66.00;;;;;;4997251;28;20039;-68
2023/09/11 11:38:18;;;;;;;0.00;0.00;;;26.20;65.10;;;;;;4998771;28;20347;-68
2023/09/11 11:40:45;;;;;;;5.80;1.45;;;26.20;65.50;;;;;;4996039;28;20396;-68
2023/09/11 11:43:12;;;;;;;0.10;0.10;;;26.10;66.60;;;;;;4997784;28;20764;-68
2023/09/11 11:45:43;;;;;;;0.10;0.10;;;26.20;66.20;;;;;;4997245;28;20052;-68
2023/09/11 11:48:11;;;;;;;0.00;0.00;;;26.10;67.40;;;;;;4996784;28;20183;-68
2023/09/11 11:50:44;;;;;;;0.00;0.00;;;26.10;68.20;;;;;;4996183;28;20057;-68
2023/09/11 11:53:22;;;;;;;0.03;0.03;;;26.00;69.20;;;;;;4998547;28;20077;-69
2023/09/11 11:55:49;;;;;;;0.03;0.00;;;26.00;70.80;;;;;;4995837;28;20046;-70
2023/09/11 11:58:15;;;;;;;2.47;1.30;;;26.00;70.60;;;;;;4989807;28;20053;-70
2023/09/11 12:01:02;;;;;;;0.00;0.00;;;26.00;70.50;;;;;;4979389;28;20057;-69
2023/09/11 12:03:32;;;;;;;0.40;0.40;;;25.90;70.70;;;;;;4997301;28;20042;-70
2023/09/11 12:06:00;;;;;;;0.00;0.00;;;25.90;70.80;;;;;;4980650;28;20513;-70
2023/09/11 12:08:27;;;;;;;0.47;0.17;;;25.80;71.00;;;;;;4997378;28;20082;-67
2023/09/11 12:10:52;;;;;;;0.00;0.00;;;25.90;71.20;;;;;;4997725;28;20046;-68
2023/09/11 12:13:22;;;;;;;0.38;0.38;;;25.80;71.90;;;;;;4996891;28;20116;-68
2023/09/11 12:15:52;;;;;;;0.10;0.10;;;25.80;71.70;;;;;;4997538;28;20184;-67
2023/09/11 12:18:19;;;;;;;0.00;0.00;;;25.80;72.20;;;;;;4996725;28;20042;-67
2023/09/11 12:21:02;;;;;;;0.20;0.20;;;25.80;73.70;;;;;;4979317;28;20050;-67
2023/09/11 12:23:28;;;;;;;0.10;0.10;;;25.70;72.50;;;;;;4998009;28;20097;-67
2023/09/11 12:25:54;;;;;;;0.57;0.35;;;25.80;72.40;;;;;;4997333;28;20446;-67
2023/09/11 12:28:21;;;;;;;1.08;0.75;;;25.70;72.50;;;;;;4998858;28;20080;-67
2023/09/11 12:30:47;;;;;;;0.13;0.13;;;25.70;72.90;;;;;;4997118;28;20106;-67
2023/09/11 12:33:14;;;;;;;3.88;2.17;;;25.60;72.70;;;;;;4996023;28;20039;-67
2023/09/11 12:35:41;;;;;;;0.10;0.10;;;25.50;73.30;;;;;;4995570;28;20045;-67
2023/09/11 12:38:10;;;;;;;0.10;0.10;;;25.60;73.10;;;;;;4999380;28;20045;-67
2023/09/11 12:40:42;;;;;;;0.35;0.35;;;25.50;72.90;;;;;;5001801;28;20133;-67
2023/09/11 12:43:09;;;;;;;0.43;0.35;;;25.60;73.60;;;;;;4983990;28;20191;-68
2023/09/11 12:45:35;;;;;;;0.10;0.10;;;25.60;72.30;;;;;;5004269;28;20042;-68
2023/09/11 12:48:02;;;;;;;0.03;0.03;;;25.70;72.30;;;;;;5003416;28;20621;-67